KPRO

Perry Municipal Airport

Perry, Iowa, USA
METAR KPRO 161755Z AUTO 04005KT 10SM OVC013 M06/M08 A3024 RMK AO2 T10601078 11060 21097
Observed Flight Rules
Jan-16 @ 17:55 UTC (29 minutes ago) Marginal Visual Flight Rules
Wind Visibility Clouds
40° at 5 knots 10 miles
  • Overcast at 1,300' AGL
Temperatures Readings
Current -6°C / 21°F
Dewpoint -8°C / 18°F
Humidity 86%
Altimeter 30.24" Hg
Pressure 1024.02 hPa
Elevation 308
METAR KPRO 161755Z AUTO 04005KT 10SM OVC013 M06/M08 A3024 RMK AO2 T10601078 11060 21097
Observed Flight Rules
Jan-16 @ 17:55 UTC
(29 minutes ago)
MVFR
Wind Visibility
40° at 5 knots 10 miles
Clouds
  • Overcast at 1,300' AGL
Temperature Dewpoint
-6°C / 21°F -8°C / 18°F
Humidity Altimeter Pressure
86% 30.24" Hg 1024.02 hPa